Time;durP1;ratioP1;P1;durP2;ratioP2;P2;SDS_P1;SDS_P2;PMS_P1;PMS_P2;Temp;Humidity;BMP_temperature;BMP_pressure;BME280_temperature;BME280_humidity;BME280_pressure;Samples;Min_cycle;Max_cycle;Signal;HPM_P1;HPM_P2
2023/08/03 00:00:02;;;;;;;0.00;0.00;;;18.30;99.90;;;;;;5092320;28;20231;-64
2023/08/03 00:02:28;;;;;;;0.00;0.00;;;18.40;99.90;;;;;;5092479;28;20180;-63
2023/08/03 00:04:53;;;;;;;0.00;0.00;;;18.40;99.90;;;;;;5092441;28;20525;-63
2023/08/03 00:07:20;;;;;;;0.00;0.00;;;18.40;99.90;;;;;;5092556;28;20186;-64
2023/08/03 00:09:47;;;;;;;0.00;0.00;;;18.40;99.90;;;;;;5092643;28;20191;-63
2023/08/03 00:12:13;;;;;;;0.00;0.00;;;18.30;99.90;;;;;;5092067;28;20180;-63
2023/08/03 00:14:38;;;;;;;0.00;0.00;;;18.30;99.90;;;;;;5092326;28;20202;-63
2023/08/03 00:17:04;;;;;;;0.00;0.00;;;18.30;99.90;;;;;;5090952;28;20180;-64
2023/08/03 00:19:30;;;;;;;0.00;0.00;;;18.40;99.90;;;;;;5092481;28;20201;-64
2023/08/03 00:21:55;;;;;;;0.00;0.00;;;18.50;99.90;;;;;;5092306;28;20683;-63
2023/08/03 00:24:21;;;;;;;0.00;0.00;;;18.50;99.90;;;;;;5091873;28;20192;-63
2023/08/03 00:26:46;;;;;;;0.00;0.00;;;18.60;99.90;;;;;;5091970;28;20187;-63
2023/08/03 00:29:12;;;;;;;0.00;0.00;;;18.50;99.90;;;;;;5091676;28;20211;-64
2023/08/03 00:31:37;;;;;;;0.00;0.00;;;18.60;99.90;;;;;;5091346;28;20659;-63
2023/08/03 00:34:03;;;;;;;0.00;0.00;;;18.60;99.90;;;;;;5090520;28;20184;-63
2023/08/03 00:36:28;;;;;;;0.00;0.00;;;18.60;99.90;;;;;;5091942;28;20179;-63
2023/08/03 00:38:54;;;;;;;0.00;0.00;;;18.60;99.90;;;;;;5089992;28;20188;-63
2023/08/03 00:41:19;;;;;;;0.00;0.00;;;18.70;99.90;;;;;;5091423;28;20215;-63
2023/08/03 00:43:45;;;;;;;0.00;0.00;;;18.80;99.90;;;;;;5091565;28;20653;-63
2023/08/03 00:46:10;;;;;;;0.00;0.00;;;18.80;99.90;;;;;;5091170;28;20235;-63
2023/08/03 00:48:36;;;;;;;0.00;0.00;;;18.90;99.90;;;;;;5091918;28;20197;-63
2023/08/03 00:51:01;;;;;;;0.00;0.00;;;18.90;99.90;;;;;;5091616;28;20241;-63
2023/08/03 00:53:29;;;;;;;0.00;0.00;;;18.90;99.90;;;;;;5091810;28;20281;-63
2023/08/03 00:55:54;;;;;;;0.00;0.00;;;18.90;99.90;;;;;;5091294;28;20184;-63
2023/08/03 00:58:20;;;;;;;0.00;0.00;;;18.90;99.90;;;;;;5090448;28;20184;-63
2023/08/03 01:00:45;;;;;;;0.00;0.00;;;19.00;99.90;;;;;;5090143;28;20238;-63
2023/08/03 01:03:11;;;;;;;0.00;0.00;;;19.00;99.90;;;;;;5091431;28;20179;-64
2023/08/03 01:05:36;;;;;;;0.00;0.00;;;19.00;99.90;;;;;;5091191;28;20180;-63
2023/08/03 01:08:02;;;;;;;0.22;0.22;;;19.00;99.90;;;;;;5089511;28;20201;-63
2023/08/03 01:10:28;;;;;;;0.00;0.00;;;18.90;99.90;;;;;;5091458;28;20241;-63
2023/08/03 01:12:56;;;;;;;0.00;0.00;;;18.90;99.90;;;;;;5091589;28;20188;-62
2023/08/03 01:15:22;;;;;;;0.00;0.00;;;18.90;99.90;;;;;;5091149;28;20181;-63
2023/08/03 01:17:47;;;;;;;0.00;0.00;;;18.80;99.90;;;;;;5090957;28;20180;-62
2023/08/03 01:20:15;;;;;;;0.00;0.00;;;18.90;99.90;;;;;;5091141;28;20563;-63
2023/08/03 01:22:42;;;;;;;0.00;0.00;;;18.90;99.90;;;;;;5090542;28;20317;-63
2023/08/03 01:25:09;;;;;;;0.00;0.00;;;18.90;99.90;;;;;;5090865;28;20188;-63
2023/08/03 01:27:34;;;;;;;0.00;0.00;;;19.00;99.90;;;;;;5090863;28;20172;-63
2023/08/03 01:30:00;;;;;;;0.00;0.00;;;19.00;99.90;;;;;;5091111;28;20186;-63
2023/08/03 01:32:25;;;;;;;0.00;0.00;;;19.00;99.90;;;;;;5090908;28;20286;-63
2023/08/03 01:34:51;;;;;;;0.00;0.00;;;19.00;99.90;;;;;;5088714;28;20184;-63
2023/08/03 01:37:18;;;;;;;0.00;0.00;;;19.00;99.90;;;;;;5091004;28;20180;-63
2023/08/03 01:39:45;;;;;;;0.00;0.00;;;19.00;99.90;;;;;;5091120;28;20179;-63
2023/08/03 01:42:11;;;;;;;0.00;0.00;;;19.00;99.90;;;;;;5091158;28;20180;-62
2023/08/03 01:44:37;;;;;;;0.00;0.00;;;19.10;99.90;;;;;;5090049;28;20568;-62
2023/08/03 01:47:02;;;;;;;0.00;0.00;;;19.10;99.90;;;;;;5091340;28;20271;-63
2023/08/03 01:49:29;;;;;;;0.00;0.00;;;19.10;99.90;;;;;;5090806;28;20271;-62
2023/08/03 01:51:55;;;;;;;0.00;0.00;;;19.10;99.90;;;;;;5091129;28;20164;-62
2023/08/03 01:54:21;;;;;;;0.00;0.00;;;19.10;99.90;;;;;;5091299;28;20172;-63
2023/08/03 01:56:46;;;;;;;0.00;0.00;;;19.10;99.90;;;;;;5091327;28;20627;-63
2023/08/03 01:59:12;;;;;;;0.00;0.00;;;19.10;99.90;;;;;;5091134;28;20218;-63
2023/08/03 02:01:38;;;;;;;0.00;0.00;;;19.10;99.90;;;;;;5091057;28;20207;-63
2023/08/03 02:04:04;;;;;;;0.00;0.00;;;19.10;99.90;;;;;;5091103;28;20631;-64
2023/08/03 02:06:30;;;;;;;0.00;0.00;;;19.00;99.90;;;;;;5090743;28;20278;-63
2023/08/03 02:08:55;;;;;;;0.00;0.00;;;19.00;99.90;;;;;;5091081;28;20195;-62
2023/08/03 02:11:21;;;;;;;0.00;0.00;;;19.00;99.90;;;;;;5091005;28;20187;-63
2023/08/03 02:13:46;;;;;;;0.00;0.00;;;19.10;99.90;;;;;;5089890;28;20636;-63
2023/08/03 02:16:12;;;;;;;0.00;0.00;;;19.10;99.90;;;;;;5091006;28;20180;-63
2023/08/03 02:18:41;;;;;;;0.00;0.00;;;19.00;99.90;;;;;;5089845;28;20176;-63
2023/08/03 02:21:07;;;;;;;0.00;0.00;;;19.00;99.90;;;;;;5090717;28;20211;-63
2023/08/03 02:23:33;;;;;;;0.00;0.00;;;19.00;99.90;;;;;;5090291;28;20716;-63
2023/08/03 02:26:02;;;;;;;0.00;0.00;;;19.00;99.90;;;;;;5091067;28;20540;-63
2023/08/03 02:28:29;;;;;;;0.00;0.00;;;19.00;99.90;;;;;;5090732;28;20301;-63
2023/08/03 02:30:54;;;;;;;0.00;0.00;;;18.90;99.90;;;;;;5090537;28;20527;-64
2023/08/03 02:33:20;;;;;;;0.00;0.00;;;18.90;99.90;;;;;;5090973;28;20195;-63
2023/08/03 02:35:45;;;;;;;0.00;0.00;;;18.90;99.90;;;;;;5090694;28;20191;-63
2023/08/03 02:38:10;;;;;;;0.00;0.00;;;18.80;99.90;;;;;;5090872;28;20183;-63
2023/08/03 02:40:36;;;;;;;0.00;0.00;;;18.70;99.90;;;;;;5092277;28;20682;-62
2023/08/03 02:43:01;;;;;;;0.00;0.00;;;18.50;99.90;;;;;;5094898;28;20187;-63
2023/08/03 02:45:27;;;;;;;0.00;0.00;;;18.30;99.90;;;;;;5088446;28;20208;-62
2023/08/03 02:47:52;;;;;;;0.00;0.00;;;18.20;99.90;;;;;;5093375;28;20616;-62
2023/08/03 02:50:18;;;;;;;0.00;0.00;;;18.10;99.90;;;;;;5094325;28;20172;-62
2023/08/03 02:52:43;;;;;;;0.00;0.00;;;18.00;99.90;;;;;;5094283;28;20176;-62
2023/08/03 02:55:09;;;;;;;0.00;0.00;;;17.90;99.90;;;;;;5094377;28;20199;-62
2023/08/03 02:57:34;;;;;;;0.00;0.00;;;17.80;99.90;;;;;;5093778;28;20180;-62
2023/08/03 03:00:00;;;;;;;0.00;0.00;;;17.80;99.90;;;;;;5094420;28;20195;-62
2023/08/03 03:02:26;;;;;;;0.00;0.00;;;17.70;99.90;;;;;;5094017;28;20190;-62
2023/08/03 03:04:51;;;;;;;0.00;0.00;;;17.60;99.90;;;;;;5094330;28;20184;-62
2023/08/03 03:07:17;;;;;;;0.00;0.00;;;17.60;99.90;;;;;;5094000;28;20176;-61
2023/08/03 03:09:42;;;;;;;0.00;0.00;;;17.70;99.90;;;;;;5094268;28;20203;-62
2023/08/03 03:12:08;;;;;;;0.00;0.00;;;17.70;99.90;;;;;;5094018;28;20177;-62
2023/08/03 03:14:36;;;;;;;0.00;0.00;;;17.60;99.90;;;;;;5092258;28;20172;-62
2023/08/03 03:17:02;;;;;;;0.00;0.00;;;17.60;99.90;;;;;;5094016;28;20540;-62
2023/08/03 03:19:28;;;;;;;0.00;0.00;;;17.60;99.90;;;;;;5092807;28;20682;-62
2023/08/03 03:21:53;;;;;;;0.00;0.00;;;17.50;99.90;;;;;;5092909;28;20215;-62
2023/08/03 03:24:19;;;;;;;0.00;0.00;;;17.50;99.90;;;;;;5091968;28;20222;-62
2023/08/03 03:26:45;;;;;;;0.00;0.00;;;17.50;99.90;;;;;;5093890;28;20178;-62
2023/08/03 03:29:10;;;;;;;0.00;0.00;;;17.50;99.90;;;;;;5093492;28;20224;-61
2023/08/03 03:31:36;;;;;;;0.00;0.00;;;17.50;99.90;;;;;;5093272;28;20295;-62
2023/08/03 03:34:01;;;;;;;0.00;0.00;;;17.70;99.90;;;;;;5093393;28;20643;-62
2023/08/03 03:36:27;;;;;;;0.00;0.00;;;17.80;99.90;;;;;;5093648;28;20176;-62
2023/08/03 03:38:52;;;;;;;0.00;0.00;;;17.80;99.90;;;;;;5093490;28;20199;-62
2023/08/03 03:41:18;;;;;;;0.00;0.00;;;17.90;99.90;;;;;;5093308;28;20207;-62
2023/08/03 03:43:44;;;;;;;0.00;0.00;;;17.80;99.90;;;;;;5093500;28;20668;-62
2023/08/03 03:46:09;;;;;;;0.00;0.00;;;17.90;99.90;;;;;;5093205;28;20661;-62
2023/08/03 03:48:35;;;;;;;0.17;0.17;;;17.60;99.90;;;;;;5093200;28;20183;-62
2023/08/03 03:51:00;;;;;;;0.00;0.00;;;17.50;99.90;;;;;;5093269;28;20215;-62
2023/08/03 03:53:26;;;;;;;0.00;0.00;;;17.40;99.90;;;;;;5092463;28;20187;-61
2023/08/03 03:55:51;;;;;;;0.00;0.00;;;17.40;99.90;;;;;;5092718;28;20572;-62
2023/08/03 03:58:17;;;;;;;0.00;0.00;;;17.50;99.90;;;;;;5091538;28;20639;-62
2023/08/03 04:00:43;;;;;;;0.00;0.00;;;17.60;99.90;;;;;;5093110;28;20208;-64
2023/08/03 04:03:08;;;;;;;0.00;0.00;;;17.60;99.90;;;;;;5092487;28;20222;-65
2023/08/03 04:05:35;;;;;;;0.00;0.00;;;17.60;99.90;;;;;;5091197;28;20192;-69
2023/08/03 04:08:01;;;;;;;0.00;0.00;;;17.70;99.90;;;;;;5092827;28;20169;-68
2023/08/03 04:10:27;;;;;;;0.00;0.00;;;17.70;99.90;;;;;;5092609;28;20757;-64
2023/08/03 04:12:53;;;;;;;0.00;0.00;;;17.70;99.90;;;;;;5091642;28;20202;-67
2023/08/03 04:15:18;;;;;;;0.00;0.00;;;17.70;99.90;;;;;;5092013;28;20182;-66
2023/08/03 04:17:48;;;;;;;0.00;0.00;;;17.70;99.90;;;;;;5091204;28;20207;-65
2023/08/03 04:20:15;;;;;;;0.10;0.00;;;17.80;99.90;;;;;;5092215;28;20200;-65
2023/08/03 04:22:40;;;;;;;0.00;0.00;;;17.80;99.90;;;;;;5092447;28;20180;-66
2023/08/03 04:25:06;;;;;;;0.00;0.00;;;17.70;99.90;;;;;;5092515;28;20179;-66
2023/08/03 04:27:32;;;;;;;0.00;0.00;;;17.60;99.90;;;;;;5092189;28;20271;-65
2023/08/03 04:29:57;;;;;;;0.00;0.00;;;17.50;99.90;;;;;;5092326;28;20263;-65
2023/08/03 04:32:23;;;;;;;0.63;0.55;;;17.40;99.90;;;;;;5092330;28;20172;-65
2023/08/03 04:34:48;;;;;;;0.00;0.00;;;17.40;99.90;;;;;;5092426;28;20627;-65
2023/08/03 04:37:14;;;;;;;0.00;0.00;;;17.40;99.90;;;;;;5092292;28;20206;-66
2023/08/03 04:39:39;;;;;;;0.00;0.00;;;17.40;99.90;;;;;;5090629;28;20187;-65
2023/08/03 04:42:05;;;;;;;0.00;0.00;;;17.50;99.90;;;;;;5091787;28;20212;-65
2023/08/03 04:44:31;;;;;;;0.00;0.00;;;17.60;99.90;;;;;;5092232;28;20172;-65
2023/08/03 04:46:56;;;;;;;0.00;0.00;;;17.60;99.90;;;;;;5092136;28;20176;-65
2023/08/03 04:49:22;;;;;;;0.00;0.00;;;17.60;99.90;;;;;;5093874;28;20172;-66
2023/08/03 04:51:49;;;;;;;0.00;0.00;;;17.60;99.90;;;;;;5092272;28;20670;-65
2023/08/03 04:54:15;;;;;;;0.00;0.00;;;17.30;99.90;;;;;;5091885;28;20187;-65
2023/08/03 04:56:40;;;;;;;0.00;0.00;;;17.00;99.90;;;;;;5094088;28;20576;-65
2023/08/03 04:59:06;;;;;;;0.00;0.00;;;16.80;99.90;;;;;;5090469;28;20191;-66
2023/08/03 05:01:32;;;;;;;0.00;0.00;;;16.60;99.90;;;;;;5091572;28;20273;-65
2023/08/03 05:03:59;;;;;;;0.00;0.00;;;16.50;99.90;;;;;;5091351;28;20172;-65
2023/08/03 05:06:25;;;;;;;0.00;0.00;;;16.40;99.90;;;;;;5090135;28;20187;-66
2023/08/03 05:08:51;;;;;;;0.00;0.00;;;16.30;99.90;;;;;;5090665;28;20168;-66
2023/08/03 05:11:16;;;;;;;0.00;0.00;;;16.30;99.90;;;;;;5090338;28;20670;-66
2023/08/03 05:13:42;;;;;;;0.00;0.00;;;16.30;99.90;;;;;;5089289;28;20172;-65
2023/08/03 05:16:07;;;;;;;0.00;0.00;;;16.30;99.90;;;;;;5091099;28;20195;-66
2023/08/03 05:18:33;;;;;;;0.15;0.15;;;16.40;99.90;;;;;;5091058;28;20175;-66
2023/08/03 05:20:58;;;;;;;0.00;0.00;;;16.50;99.90;;;;;;5091095;28;20686;-65
2023/08/03 05:23:24;;;;;;;0.00;0.00;;;16.60;99.90;;;;;;5090912;28;20939;-65
2023/08/03 05:25:56;;;;;;;0.00;0.00;;;16.60;99.90;;;;;;5091237;28;20229;-66
2023/08/03 05:28:23;;;;;;;0.00;0.00;;;16.60;99.90;;;;;;5090689;28;20219;-66
2023/08/03 05:30:48;;;;;;;0.00;0.00;;;16.50;99.90;;;;;;5089514;28;20184;-65
2023/08/03 05:33:14;;;;;;;0.00;0.00;;;16.50;99.90;;;;;;5072867;28;20176;-65
2023/08/03 05:35:40;;;;;;;0.00;0.00;;;16.50;99.90;;;;;;5089287;28;20184;-66
2023/08/03 05:38:06;;;;;;;0.00;0.00;;;16.50;99.90;;;;;;5090474;28;20265;-66
2023/08/03 05:40:32;;;;;;;0.00;0.00;;;16.60;99.90;;;;;;5090505;28;20203;-66
2023/08/03 05:42:57;;;;;;;0.00;0.00;;;16.60;99.90;;;;;;5090678;28;20583;-66
2023/08/03 05:45:42;;;;;;;0.00;0.00;;;16.60;99.90;;;;;;5090949;28;20243;-66
2023/08/03 05:48:17;;;;;;;0.00;0.00;;;16.70;99.90;;;;;;5090335;28;20176;-66
2023/08/03 05:50:48;;;;;;;0.00;0.00;;;16.80;99.90;;;;;;5090774;28;20186;-66
2023/08/03 05:53:14;;;;;;;0.00;0.00;;;16.80;99.90;;;;;;5090203;28;20798;-66
2023/08/03 05:55:41;;;;;;;0.25;0.25;;;16.90;99.90;;;;;;5090836;28;20188;-66
2023/08/03 05:58:12;;;;;;;0.00;0.00;;;17.00;99.90;;;;;;5090575;28;20243;-66
2023/08/03 06:00:41;;;;;;;0.00;0.00;;;17.00;99.90;;;;;;5090306;28;20211;-66
2023/08/03 06:03:11;;;;;;;0.00;0.00;;;17.10;99.90;;;;;;5090520;28;20212;-66
2023/08/03 06:05:45;;;;;;;0.17;0.17;;;17.10;99.90;;;;;;5089912;28;20190;-66
2023/08/03 06:08:20;;;;;;;0.00;0.00;;;17.20;99.90;;;;;;5090434;28;20209;-66
2023/08/03 06:10:51;;;;;;;0.00;0.00;;;17.30;99.90;;;;;;5090658;28;20262;-66
2023/08/03 06:13:19;;;;;;;0.00;0.00;;;17.30;99.90;;;;;;5089674;28;20203;-65
2023/08/03 06:15:46;;;;;;;0.00;0.00;;;17.40;99.90;;;;;;5089161;28;20199;-66
2023/08/03 06:18:17;;;;;;;0.00;0.00;;;17.40;99.90;;;;;;5090182;28;20176;-66
2023/08/03 06:20:50;;;;;;;0.00;0.00;;;17.30;99.90;;;;;;5089566;28;20307;-65
2023/08/03 06:23:24;;;;;;;0.00;0.00;;;17.30;99.90;;;;;;5094206;28;20215;-65
2023/08/03 06:25:52;;;;;;;0.00;0.00;;;17.30;99.90;;;;;;5094758;28;20190;-65
2023/08/03 06:28:20;;;;;;;0.00;0.00;;;17.20;99.90;;;;;;5094342;28;20691;-66
2023/08/03 06:30:47;;;;;;;0.00;0.00;;;17.20;99.90;;;;;;5094919;28;20226;-65
2023/08/03 06:33:23;;;;;;;0.00;0.00;;;17.20;99.90;;;;;;5094729;28;20255;-65
2023/08/03 06:35:53;;;;;;;0.00;0.00;;;17.10;99.90;;;;;;5094923;28;20206;-65
2023/08/03 06:38:22;;;;;;;0.00;0.00;;;17.10;99.90;;;;;;5094248;28;20172;-65
2023/08/03 06:40:48;;;;;;;0.00;0.00;;;17.10;99.90;;;;;;5094638;28;20574;-65
2023/08/03 06:43:16;;;;;;;0.00;0.00;;;17.10;99.90;;;;;;5094859;28;20267;-65
2023/08/03 06:45:42;;;;;;;0.00;0.00;;;17.10;99.90;;;;;;5094596;28;20187;-65
2023/08/03 06:48:09;;;;;;;0.38;0.38;;;17.10;99.90;;;;;;5094531;28;20593;-64
2023/08/03 06:50:35;;;;;;;0.00;0.00;;;17.10;99.90;;;;;;5094486;28;20245;-64
2023/08/03 06:53:02;;;;;;;0.00;0.00;;;17.20;99.90;;;;;;5093694;28;20176;-64
2023/08/03 06:55:28;;;;;;;0.00;0.00;;;17.20;99.90;;;;;;5093802;28;20180;-65
2023/08/03 06:57:54;;;;;;;0.00;0.00;;;17.20;99.90;;;;;;5093042;28;20688;-64
2023/08/03 07:00:19;;;;;;;0.00;0.00;;;17.20;99.90;;;;;;5094154;28;20317;-64
2023/08/03 07:02:47;;;;;;;0.00;0.00;;;17.20;99.90;;;;;;5094540;28;20223;-64
2023/08/03 07:05:13;;;;;;;0.00;0.00;;;17.20;99.90;;;;;;5092966;28;20183;-64
2023/08/03 07:07:39;;;;;;;0.00;0.00;;;17.20;99.90;;;;;;5094150;28;20215;-65
2023/08/03 07:10:06;;;;;;;0.00;0.00;;;17.20;99.90;;;;;;5092294;28;20211;-64
2023/08/03 07:12:32;;;;;;;0.00;0.00;;;17.30;99.90;;;;;;5093915;28;20176;-65
2023/08/03 07:14:58;;;;;;;0.00;0.00;;;17.30;99.90;;;;;;5093949;28;20180;-64
2023/08/03 07:17:23;;;;;;;0.00;0.00;;;17.30;99.90;;;;;;5093453;28;20210;-64
2023/08/03 07:19:52;;;;;;;0.00;0.00;;;17.30;99.90;;;;;;5093812;28;20529;-64
2023/08/03 07:22:21;;;;;;;0.00;0.00;;;17.40;99.90;;;;;;5091128;28;20680;-64
2023/08/03 07:24:47;;;;;;;0.00;0.00;;;17.40;99.90;;;;;;5094067;28;20168;-64
2023/08/03 07:27:14;;;;;;;0.00;0.00;;;17.50;99.90;;;;;;5093890;28;20179;-64
2023/08/03 07:29:40;;;;;;;0.00;0.00;;;17.50;99.90;;;;;;5093286;28;20319;-65
2023/08/03 07:32:07;;;;;;;0.00;0.00;;;17.50;99.90;;;;;;5093515;28;20197;-64
2023/08/03 07:34:32;;;;;;;0.00;0.00;;;17.60;99.90;;;;;;5092466;28;20710;-59
2023/08/03 07:37:01;;;;;;;0.00;0.00;;;17.60;99.90;;;;;;5093786;28;20271;-60
2023/08/03 07:39:27;;;;;;;0.00;0.00;;;17.60;99.90;;;;;;5093730;28;20237;-60
2023/08/03 07:41:52;;;;;;;0.00;0.00;;;17.70;99.90;;;;;;5092760;28;20215;-60
2023/08/03 07:44:18;;;;;;;0.00;0.00;;;17.70;99.90;;;;;;5093390;28;20208;-60
2023/08/03 07:46:45;;;;;;;0.00;0.00;;;17.80;99.90;;;;;;5093183;28;20202;-60
2023/08/03 07:49:11;;;;;;;0.00;0.00;;;17.80;99.90;;;;;;5105581;28;20261;-60
2023/08/03 07:51:37;;;;;;;0.00;0.00;;;17.90;99.90;;;;;;5113863;28;20187;-60
2023/08/03 07:54:02;;;;;;;0.00;0.00;;;17.90;99.90;;;;;;5113807;28;20213;-60
2023/08/03 07:56:28;;;;;;;0.00;0.00;;;18.00;99.90;;;;;;5113808;28;20183;-59
2023/08/03 07:58:54;;;;;;;0.00;0.00;;;18.10;99.90;;;;;;5113751;28;20179;-60
2023/08/03 08:01:20;;;;;;;0.00;0.00;;;18.20;99.90;;;;;;5108955;28;20745;-60
2023/08/03 08:03:47;;;;;;;0.00;0.00;;;18.30;99.90;;;;;;5092850;28;20259;-61
2023/08/03 08:06:15;;;;;;;0.00;0.00;;;18.40;99.90;;;;;;5092917;28;20184;-61
2023/08/03 08:08:41;;;;;;;0.00;0.00;;;18.50;99.90;;;;;;5093227;28;20180;-60
2023/08/03 08:11:07;;;;;;;0.00;0.00;;;18.60;99.90;;;;;;5093047;28;20172;-61
2023/08/03 08:13:33;;;;;;;0.00;0.00;;;18.60;99.90;;;;;;5093256;28;20176;-60
2023/08/03 08:16:03;;;;;;;0.00;0.00;;;18.80;99.90;;;;;;5093040;28;20183;-61
2023/08/03 08:18:30;;;;;;;0.00;0.00;;;18.80;99.90;;;;;;5092951;28;20310;-60
2023/08/03 08:20:57;;;;;;;0.00;0.00;;;18.90;99.90;;;;;;5092226;28;20215;-60
2023/08/03 08:23:22;;;;;;;0.00;0.00;;;19.00;99.90;;;;;;5090196;28;20540;-60
2023/08/03 08:25:48;;;;;;;0.00;0.00;;;18.90;99.90;;;;;;5092170;28;20184;-60
2023/08/03 08:28:14;;;;;;;0.00;0.00;;;18.80;99.90;;;;;;5092524;28;20227;-61
2023/08/03 08:30:39;;;;;;;0.00;0.00;;;18.70;99.90;;;;;;5092513;28;20188;-61
2023/08/03 08:33:05;;;;;;;0.05;0.05;;;18.50;99.90;;;;;;5092547;28;20172;-62
2023/08/03 08:35:31;;;;;;;0.00;0.00;;;18.40;99.90;;;;;;5092487;28;20184;-61
2023/08/03 08:37:59;;;;;;;0.00;0.00;;;18.30;99.90;;;;;;5092188;28;20217;-61
2023/08/03 08:40:28;;;;;;;0.00;0.00;;;18.30;99.90;;;;;;5092160;28;20208;-62
2023/08/03 08:42:55;;;;;;;0.10;0.10;;;18.20;99.90;;;;;;5092501;28;20225;-61
2023/08/03 08:45:20;;;;;;;0.00;0.00;;;18.10;99.90;;;;;;5092294;28;20172;-61
2023/08/03 08:47:46;;;;;;;0.00;0.00;;;18.00;99.90;;;;;;5091515;28;20229;-60
2023/08/03 08:50:12;;;;;;;0.00;0.00;;;18.00;99.90;;;;;;5091671;28;20194;-61
2023/08/03 08:52:43;;;;;;;0.00;0.00;;;17.80;99.90;;;;;;5092018;28;20184;-61
2023/08/03 08:55:23;;;;;;;0.00;0.00;;;17.80;99.90;;;;;;5091437;28;20266;-62
2023/08/03 08:57:52;;;;;;;0.00;0.00;;;17.80;99.90;;;;;;5091510;28;20179;-61
2023/08/03 09:00:19;;;;;;;0.00;0.00;;;17.70;99.90;;;;;;5091545;28;20220;-62
2023/08/03 09:02:45;;;;;;;0.00;0.00;;;17.70;99.90;;;;;;5091667;28;20253;-61
2023/08/03 09:05:18;;;;;;;0.00;0.00;;;17.70;99.90;;;;;;5091379;28;20643;-62
2023/08/03 09:07:45;;;;;;;0.00;0.00;;;17.70;99.90;;;;;;5071268;28;20185;-62
2023/08/03 09:10:11;;;;;;;0.00;0.00;;;17.70;99.90;;;;;;5071069;28;20176;-61
2023/08/03 09:12:39;;;;;;;0.00;0.00;;;17.70;99.90;;;;;;5081866;28;20176;-60
2023/08/03 09:15:05;;;;;;;0.00;0.00;;;17.70;99.90;;;;;;5091168;28;20760;-61
2023/08/03 09:17:31;;;;;;;0.00;0.00;;;17.70;99.90;;;;;;5090527;28;20175;-60
2023/08/03 09:19:57;;;;;;;0.00;0.00;;;17.70;99.90;;;;;;5091164;28;20172;-61
2023/08/03 09:22:24;;;;;;;0.00;0.00;;;17.60;99.90;;;;;;5091091;28;20671;-61
2023/08/03 09:25:19;;;;;;;0.00;0.00;;;17.60;99.90;;;;;;5089703;28;20184;-61
2023/08/03 09:27:49;;;;;;;0.00;0.00;;;17.70;99.90;;;;;;5073574;28;20220;-60
2023/08/03 09:30:15;;;;;;;0.00;0.00;;;17.80;99.90;;;;;;5091160;28;20184;-60
2023/08/03 09:32:41;;;;;;;0.00;0.00;;;17.90;99.90;;;;;;5092534;28;20171;-60
2023/08/03 09:35:17;;;;;;;0.00;0.00;;;18.20;99.90;;;;;;5091050;28;20644;-61
2023/08/03 09:37:43;;;;;;;0.00;0.00;;;18.80;99.90;;;;;;5091031;28;20270;-61
2023/08/03 09:40:09;;;;;;;0.00;0.00;;;19.40;99.90;;;;;;5090735;28;20258;-61
2023/08/03 09:42:40;;;;;;;0.00;0.00;;;19.70;99.90;;;;;;5090937;28;20683;-61
2023/08/03 09:45:07;;;;;;;0.00;0.00;;;20.00;99.90;;;;;;5090710;28;20168;-60
2023/08/03 09:47:36;;;;;;;0.00;0.00;;;19.90;99.90;;;;;;5091033;28;20188;-60
2023/08/03 09:50:03;;;;;;;0.00;0.00;;;19.50;99.90;;;;;;5090158;28;20271;-61
2023/08/03 09:52:30;;;;;;;0.00;0.00;;;19.20;99.90;;;;;;5090406;28;20183;-60
2023/08/03 09:55:10;;;;;;;0.00;0.00;;;19.10;99.90;;;;;;5070959;28;20636;-60
2023/08/03 09:57:43;;;;;;;0.00;0.00;;;19.10;99.90;;;;;;5070367;28;20184;-61
2023/08/03 10:00:11;;;;;;;0.00;0.00;;;19.10;99.90;;;;;;5073317;28;20190;-61
2023/08/03 10:02:50;;;;;;;0.00;0.00;;;19.10;99.90;;;;;;5091446;28;20195;-61
2023/08/03 10:05:20;;;;;;;0.10;0.10;;;19.10;99.90;;;;;;5090749;28;20247;-61
2023/08/03 10:08:06;;;;;;;0.00;0.00;;;19.20;99.90;;;;;;5090689;28;20215;-61
2023/08/03 10:10:36;;;;;;;0.00;0.00;;;19.30;99.90;;;;;;5070945;28;20191;-60
2023/08/03 10:13:06;;;;;;;0.00;0.00;;;19.30;99.90;;;;;;5071004;28;20263;-61
2023/08/03 10:15:32;;;;;;;0.00;0.00;;;19.50;99.90;;;;;;5070960;28;20177;-60
2023/08/03 10:17:58;;;;;;;0.00;0.00;;;19.70;99.90;;;;;;5071001;28;20636;-61
2023/08/03 10:20:25;;;;;;;0.00;0.00;;;19.60;99.90;;;;;;5070794;28;20258;-60
2023/08/03 10:23:11;;;;;;;0.00;0.00;;;19.60;99.90;;;;;;5080037;28;20716;-61
2023/08/03 10:25:58;;;;;;;0.00;0.00;;;19.50;99.90;;;;;;5090943;28;20191;-60
2023/08/03 10:28:39;;;;;;;0.00;0.00;;;19.50;99.90;;;;;;5090155;28;20212;-61
2023/08/03 10:31:14;;;;;;;0.00;0.00;;;19.60;99.90;;;;;;5090991;28;20172;-61
2023/08/03 10:33:51;;;;;;;0.00;0.00;;;19.80;99.90;;;;;;5090430;28;20179;-61
2023/08/03 10:36:33;;;;;;;0.00;0.00;;;20.00;99.90;;;;;;5090901;28;20179;-61
2023/08/03 10:39:01;;;;;;;0.00;0.00;;;20.00;99.90;;;;;;5090840;28;20186;-60
2023/08/03 10:41:37;;;;;;;0.00;0.00;;;20.00;99.90;;;;;;5088560;28;20204;-60
2023/08/03 10:44:05;;;;;;;0.00;0.00;;;20.10;99.90;;;;;;5090787;28;20182;-61
2023/08/03 10:46:41;;;;;;;0.00;0.00;;;20.00;99.90;;;;;;5090129;28;20195;-61
2023/08/03 10:49:19;;;;;;;0.00;0.00;;;20.10;99.90;;;;;;5090713;28;20172;-61
2023/08/03 10:51:52;;;;;;;0.00;0.00;;;20.10;99.90;;;;;;5090701;28;20176;-61
2023/08/03 10:54:19;;;;;;;0.00;0.00;;;20.20;99.90;;;;;;5099697;28;20539;-60
2023/08/03 10:57:02;;;;;;;0.00;0.00;;;20.20;99.90;;;;;;5111127;28;20167;-61
2023/08/03 10:59:27;;;;;;;0.00;0.00;;;20.20;99.90;;;;;;5110981;28;20175;-61
2023/08/03 11:01:53;;;;;;;0.00;0.00;;;20.20;99.90;;;;;;5111068;28;20222;-61
2023/08/03 11:04:23;;;;;;;0.00;0.00;;;20.10;99.90;;;;;;5096311;28;20536;-61
2023/08/03 11:06:51;;;;;;;0.00;0.00;;;20.10;99.90;;;;;;5090277;28;20184;-61
2023/08/03 11:09:17;;;;;;;0.00;0.00;;;20.20;99.90;;;;;;5092705;28;20716;-61
2023/08/03 11:11:45;;;;;;;0.00;0.00;;;20.10;99.90;;;;;;5094103;28;20192;-61
2023/08/03 11:14:10;;;;;;;0.00;0.00;;;20.20;99.90;;;;;;5094045;28;20632;-61
2023/08/03 11:16:36;;;;;;;0.00;0.00;;;20.40;99.90;;;;;;5094230;28;20176;-61
2023/08/03 11:19:02;;;;;;;0.00;0.00;;;20.40;99.90;;;;;;5094091;28;20651;-61
2023/08/03 11:21:27;;;;;;;0.00;0.00;;;20.50;99.90;;;;;;5093914;28;20616;-61
2023/08/03 11:23:53;;;;;;;0.00;0.00;;;20.70;99.90;;;;;;5093758;28;20187;-61
2023/08/03 11:26:18;;;;;;;0.00;0.00;;;21.00;99.90;;;;;;5092753;28;20237;-61
2023/08/03 11:28:44;;;;;;;0.00;0.00;;;21.10;99.90;;;;;;5093321;28;20220;-61
2023/08/03 11:31:16;;;;;;;0.00;0.00;;;21.40;99.90;;;;;;5093680;28;20204;-61
2023/08/03 11:33:53;;;;;;;0.00;0.00;;;21.40;99.90;;;;;;5093618;28;20278;-61
2023/08/03 11:36:20;;;;;;;0.00;0.00;;;21.50;99.90;;;;;;5093571;28;20186;-61
2023/08/03 11:38:47;;;;;;;0.00;0.00;;;21.70;99.90;;;;;;5092985;28;20210;-61
2023/08/03 11:41:14;;;;;;;0.00;0.00;;;21.90;99.90;;;;;;5093397;28;20216;-61
2023/08/03 11:43:40;;;;;;;0.00;0.00;;;22.10;99.90;;;;;;5093354;28;20184;-61
2023/08/03 11:46:06;;;;;;;0.00;0.00;;;22.40;99.90;;;;;;5093469;28;20172;-61
2023/08/03 11:48:32;;;;;;;0.00;0.00;;;22.70;99.90;;;;;;5093186;28;20176;-62
2023/08/03 11:51:04;;;;;;;0.00;0.00;;;22.50;99.00;;;;;;5093374;28;20179;-62
2023/08/03 11:53:30;;;;;;;0.00;0.00;;;22.30;99.50;;;;;;5092676;28;20180;-60
2023/08/03 11:55:59;;;;;;;0.00;0.00;;;22.10;99.80;;;;;;5093090;28;21854;-60
2023/08/03 11:58:25;;;;;;;0.00;0.00;;;22.00;99.90;;;;;;5092992;28;20277;-60
2023/08/03 12:00:58;;;;;;;0.00;0.00;;;22.10;99.90;;;;;;5093182;28;20222;-61
2023/08/03 12:03:34;;;;;;;0.00;0.00;;;22.40;99.90;;;;;;5092932;28;20178;-60
2023/08/03 12:06:05;;;;;;;0.00;0.00;;;22.60;99.90;;;;;;5092451;28;20187;-61
2023/08/03 12:08:46;;;;;;;0.00;0.00;;;22.90;99.90;;;;;;5093099;28;20183;-61
2023/08/03 12:11:17;;;;;;;0.00;0.00;;;23.20;99.90;;;;;;5092985;28;20662;-60
2023/08/03 12:13:43;;;;;;;0.00;0.00;;;23.10;99.20;;;;;;5092202;28;20195;-60
2023/08/03 12:16:09;;;;;;;0.00;0.00;;;22.90;99.30;;;;;;5091279;28;20198;-60
2023/08/03 12:18:35;;;;;;;0.00;0.00;;;23.10;99.40;;;;;;5091674;28;20531;-61
2023/08/03 12:21:00;;;;;;;0.00;0.00;;;23.30;99.90;;;;;;5091547;28;20212;-62
2023/08/03 12:23:26;;;;;;;0.00;0.00;;;23.50;99.50;;;;;;5091632;28;20274;-61
2023/08/03 12:25:54;;;;;;;0.00;0.00;;;23.70;99.10;;;;;;5091850;28;20187;-61
2023/08/03 12:28:20;;;;;;;0.00;0.00;;;23.60;98.10;;;;;;5090647;28;20224;-61
2023/08/03 12:30:46;;;;;;;0.00;0.00;;;23.60;97.40;;;;;;5092146;28;20172;-61
2023/08/03 12:33:12;;;;;;;0.00;0.00;;;23.30;98.10;;;;;;5091701;28;20698;-62
2023/08/03 12:35:38;;;;;;;0.00;0.00;;;23.30;97.90;;;;;;5092058;28;20191;-61
2023/08/03 12:38:04;;;;;;;0.00;0.00;;;23.30;97.90;;;;;;5091602;28;20184;-62
2023/08/03 12:40:29;;;;;;;0.00;0.00;;;23.30;97.60;;;;;;5091429;28;20612;-61
2023/08/03 12:42:55;;;;;;;0.00;0.00;;;23.40;97.90;;;;;;5091520;28;20235;-61
2023/08/03 12:45:23;;;;;;;0.00;0.00;;;23.50;97.50;;;;;;5091830;28;20172;-61
2023/08/03 12:47:49;;;;;;;0.00;0.00;;;23.50;97.60;;;;;;5091723;28;20248;-61